Station: Wycheproof (Cfa)  

  Atmospheric Gas Attenuation - ITU Rec 676-11   ----------------- dB/100km -----------------
Date Time Temp RH % AH g/m3 Dew Point Wind Direction Speed kph Gust kph Barometer mB Rainfall Since 9am 24GHz 47GHz 76GHz 122GHz 134GHz 241GHz
08/05 12:30 16.9 63 9.06 9.8 26 33 1013.1 0 20.4 25.7 40.1 105.2 100.4 346.0
08/05 12:20 16.9 62 8.92 9.6 26 30 1013.1 0 20.1 25.5 39.5 103.7 98.6 339.7
08/05 12:10 16.7 63 8.95 9.8 30 33 1013.1 0 20.2 25.6 39.7 104.3 99.3 341.9
08/05 12:00 16.9 63 9.06 9.9 32 37 1013.1 0 20.4 25.7 40.1 105.2 100.4 346.0
08/05 11:50 16.9 62 8.92 9.6 30 33 1013.1 0 20.1 25.5 39.5 103.7 98.6 339.7
08/05 11:40 16.6 65 9.18 10 28 32 1013.1 0 20.7 26.0 40.7 106.8 102.4 352.7
08/05 11:30 16.6 63 8.9 9.5 24 30 1013.1 0 20.1 25.6 39.6 103.9 98.8 340.1
08/05 11:20 16.2 66 9.1 10 24 28 1013.1 0 20.5 26.0 40.6 106.5 101.9 350.9
08/05 11:10 15.6 68 9.04 9.8 26 32 1013.1 0 20.4 26.1 40.6 106.7 101.9 350.8
08/05 11:00 15.8 69 9.29 10.1 28 32 1013.1 0 21.0 26.4 41.5 109.1 104.9 361.4
08/05 10:50 15.6 67 8.91 9.5 28 35 1013.1 0 20.2 25.9 40.1 105.3 100.2 344.9
08/05 10:40 15.6 67 8.91 9.6 26 28 1013.1 0 20.2 25.9 40.1 105.3 100.2 344.9
08/05 10:30 15.4 70 9.2 9.9 24 30 1013.1 0 20.8 26.4 41.4 108.7 104.2 359.1
08/05 10:20 14.9 72 9.18 10 26 33 1013.1 0 20.8 26.5 41.6 109.2 104.6 360.4
08/05 10:10 15 72 9.23 10.1 26 30 1013.1 0 20.9 26.6 41.7 109.6 105.2 362.3
08/05 10:00 14.4 74 9.15 9.9 28 30 1013.1 0 20.7 26.6 41.7 109.5 104.9 361.3
08/05 09:50 14.3 77 9.46 10.3 26 32 1013.1 0 21.4 27.1 43.0 113.1 109.2 376.4
08/05 09:40 14.2 80 9.77 10.8 22 28 1013.1 0 22.1 27.7 44.4 116.6 113.6 391.7
08/05 09:30 13.4 86 10 11.1 24 32 1013.1 0 22.6 28.3 45.8 120.4 118.0 406.9
08/05 09:20 13.4 88 10.23 11.4 22 26 1013.1 0 23.1 28.7 46.8 123.1 121.2 418.2
08/05 09:10 13 90 10.21 11.4 24 28 1013.1 0 23.1 28.8 46.9 123.5 121.5 419.3
08/05 09:00 13.3 88 10.17 11.3 22 26 1013.1 0 23.0 28.7 46.6 122.5 120.5 415.7
08/05 08:50 13.2 87 9.99 11.1 22 26 1013.1 0 22.6 28.4 45.9 120.6 118.1 407.5
08/05 08:40 13.1 87 9.93 11 22 28 1013.1 0 22.5 28.3 45.7 120.1 117.5 405.0
08/05 08:30 13.1 86 9.81 10.8 24 28 1013.1 0 22.2 28.1 45.2 118.8 115.8 399.2
08/05 08:20 12.8 87 9.75 10.7 26 30 1013.1 0 22.1 28.1 45.1 118.5 115.4 397.8
08/05 08:10 12.6 88 9.74 10.6 24 30 1013.1 0 22.1 28.2 45.2 118.7 115.6 398.3
08/05 08:00 12.2 90 9.71 10.6 24 28 1013.1 0 22.1 28.2 45.3 119.0 115.7 398.9
08/05 07:40 11.8 91 9.58 10.4 20 26 1013.1 0 21.8 28.1 44.9 118.1 114.5 394.6
08/05 07:30 11.8 92 9.68 10.5 19 20 1013.1 0 22.0 28.3 45.4 119.3 115.9 399.5
08/05 07:20 11.9 90 9.53 10.4 19 22 1013.1 0 21.7 28.0 44.7 117.4 113.7 391.6
08/05 07:10 12.1 88 9.44 10.2 20 22 1013.1 0 21.5 27.8 44.2 116.1 112.1 386.2
08/05 07:00 12.1 87 9.33 10.1 19 22 1013.1 0 21.2 27.6 43.7 114.8 110.6 380.9
08/05 06:50 12.1 88 9.44 10.2 20 22 1013.1 0 21.5 27.8 44.2 116.1 112.1 386.2
08/05 06:40 12.1 87 9.33 10.1 20 24 1013.1 0 21.2 27.6 43.7 114.8 110.6 380.9
08/05 06:30 12 88 9.38 10.1 19 20 1013.1 0 21.4 27.7 44.0 115.6 111.4 383.8
08/05 06:20 12 89 9.49 10.2 22 30 1013.1 0 21.6 27.9 44.4 116.8 113.0 389.2
08/05 06:10 12 88 9.38 10.1 20 26 1013.1 0 21.4 27.7 44.0 115.6 111.4 383.8
08/05 06:00 12 87 9.27 10 20 24 1013.1 0 21.1 27.5 43.5 114.3 109.9 378.5
08/05 05:50 12 87 9.27 10 20 22 1013.1 0 21.1 27.5 43.5 114.3 109.9 378.5
08/05 05:40 11.9 88 9.32 10 22 24 1013.1 0 21.2 27.7 43.8 115.0 110.7 381.4
08/05 05:30 11.9 88 9.32 10 22 28 1013.1 0 21.2 27.7 43.8 115.0 110.7 381.4
08/05 05:20 11.8 87 9.16 9.7 20 26 1013.1 0 20.9 27.4 43.1 113.4 108.6 374.1
08/05 05:10 11.8 87 9.16 9.8 19 20 1013.1 0 20.9 27.4 43.1 113.4 108.6 374.1
08/05 05:00 11.7 86 9 9.5 17 19 1013.1 0 20.6 27.2 42.5 111.7 106.6 366.8
08/05 04:50 11.6 87 9.04 9.5 20 22 1013.1 0 20.6 27.3 42.7 112.3 107.3 369.2
08/05 04:40 11.5 87 8.99 9.4 20 22 1013.1 0 20.5 27.2 42.6 111.9 106.7 367.3
08/05 04:30 11.5 86 8.88 9.3 20 26 1013.1 0 20.3 27.0 42.1 110.7 105.2 362.0
08/05 04:20 11.4 87 8.93 9.3 20 26 1013.1 0 20.4 27.2 42.4 111.4 106.0 364.9
08/05 04:10 11.3 87 8.88 9.2 20 22 1013.1 0 20.3 27.1 42.2 110.9 105.5 362.9
08/05 04:00 11.1 88 8.87 9.2 19 20 1013.1 0 20.3 27.1 42.3 111.1 105.6 363.4
08/05 03:50 10.8 89 8.8 9 19 20 1013.1 0 20.2 27.1 42.2 110.8 105.1 361.4
08/05 03:40 10.6 89 8.69 8.8 17 19 1013.1 0 19.9 27.0 41.8 109.8 103.8 357.0
08/05 03:30 10.4 89 8.58 8.6 15 19 1013.1 0 19.7 26.9 41.5 108.8 102.5 352.5
08/05 03:20 10.3 88 8.43 8.4 15 19 1013.1 0 19.4 26.6 40.9 107.3 100.6 345.7
08/05 03:10 10.2 88 8.38 8.3 17 20 1013.1 0 19.3 26.6 40.7 106.9 100.0 343.8
08/05 03:00 10 88 8.27 8.2 15 17 1013.1 0 19.1 26.5 40.4 105.9 98.8 339.4
08/05 02:50 10.1 87 8.23 8.1 15 17 1013.1 0 19.0 26.4 40.1 105.3 98.1 337.0
08/05 02:40 10.1 87 8.23 8.1 17 20 1013.1 0 19.0 26.4 40.1 105.3 98.1 337.0
08/05 02:30 10.2 87 8.28 8.1 19 20 1013.1 0 19.1 26.4 40.3 105.8 98.7 339.0
08/05 02:20 10.2 86 8.19 8 17 19 1013.1 0 18.9 26.3 39.9 104.8 97.4 334.7
08/05 02:10 10.1 86 8.13 7.9 17 19 1013.1 0 18.8 26.2 39.7 104.2 96.7 332.2
08/05 02:00 10.2 86 8.19 7.9 15 17 1013.1 0 18.9 26.3 39.9 104.8 97.4 334.7
08/05 01:50 10.2 85 8.09 7.8 13 15 1013.1 0 18.7 26.1 39.5 103.7 96.1 329.9
08/05 01:40 10.3 84 8.05 7.8 13 15 1013.1 0 18.6 26.0 39.3 103.1 95.4 327.6
08/05 01:30 10.4 84 8.1 7.8 15 19 1013.1 0 18.7 26.1 39.5 103.5 96.0 329.5
08/05 01:20 10.4 84 8.1 7.8 17 17 1013.1 0 18.7 26.1 39.5 103.5 96.0 329.5
08/05 01:10 10.5 83 8.05 7.7 17 19 1013.1 0 18.6 26.0 39.2 102.8 95.2 326.7
08/05 01:00 10.4 83 8 7.6 15 17 1013.1 0 18.5 25.9 39.0 102.4 94.6 324.8
08/05 00:50 10.3 82 7.85 7.4 19 20 1013.1 0 18.1 25.7 38.5 100.9 92.7 318.1
08/05 00:40 10.1 82 7.76 7.2 19 20 1013.1 0 18.0 25.6 38.2 100.2 91.7 314.6
08/05 00:30 10 83 7.8 7.2 17 19 1013.1 0 18.1 25.7 38.4 100.7 92.4 316.9
08/05 00:20 10 81 7.61 7 15 17 1013.1 0 17.6 25.4 37.6 98.7 89.8 308.0
08/05 00:10 10 81 7.61 7 15 19 1013.1 0 17.6 25.4 37.6 98.7 89.8 308.0
08/05 00:00 10 81 7.61 7 11 13 1013.1 0 17.6 25.4 37.6 98.7 89.8 308.0
07/05 23:50 9.9 81 7.56 6.9 7 9 1013.1 0 17.5 25.3 37.5 98.2 89.3 306.0
07/05 23:40 9.9 80 7.47 6.7 9 9 1013.1 0 17.3 25.2 37.1 97.3 88.1 301.8
07/05 23:30 10 79 7.43 6.6 11 15 1013.1 0 17.3 25.1 36.9 96.7 87.4 299.6
07/05 23:20 10.1 78 7.38 6.5 17 20 1013.1 0 17.1 25.0 36.7 96.0 86.6 296.8
07/05 23:10 10.2 77 7.33 6.4 17 20 1013.1 0 17.0 24.9 36.4 95.4 85.9 294.2
07/05 23:00 10.3 76 7.28 6.2 19 22 1013.1 0 16.9 24.7 36.2 94.7 85.1 291.5
07/05 22:50 10.5 75 7.28 6.2 19 20 1013.1 0 16.9 24.7 36.1 94.5 84.9 290.7
07/05 22:40 10.6 74 7.22 6.1 17 20 1013.1 0 16.8 24.6 35.8 93.7 84.0 287.6
07/05 22:30 10.6 73 7.13 5.9 15 17 1013.1 0 16.6 24.4 35.4 92.8 82.8 283.5
07/05 22:20 10.6 72 7.03 5.8 13 15 1013.1 0 16.4 24.3 35.0 91.7 81.5 278.9
07/05 22:10 10.5 71 6.89 5.5 13 17 1013.1 0 16.1 24.1 34.5 90.4 79.8 272.9
07/05 22:00 10.3 73 6.99 5.7 17 19 1013.1 0 16.3 24.3 35.0 91.7 81.3 278.1
07/05 21:50 10.2 72 6.85 5.5 15 17 1013.1 0 16.0 24.1 34.5 90.3 79.6 272.1
07/05 21:40 10.1 72 6.81 5.4 15 17 1013.1 0 15.9 24.1 34.4 90.0 79.2 270.6
07/05 21:30 10 73 6.86 5.5 15 15 1013.1 0 16.0 24.2 34.6 90.6 79.9 273.3
07/05 21:20 10.2 71 6.76 5.3 15 17 1013.1 0 15.8 23.9 34.2 89.3 78.4 268.0
07/05 21:10 10.4 70 6.75 5.3 13 15 1013.1 0 15.8 23.9 34.0 89.0 78.1 266.9
07/05 21:00 10.7 70 6.88 5.5 13 15 1013.1 0 16.0 24.0 34.4 90.0 79.5 271.8
07/05 20:50 10.8 68 6.72 5.1 17 19 1013.1 0 15.7 23.7 33.7 88.3 77.3 264.2
07/05 20:40 10.6 69 6.74 5.2 15 19 1013.1 0 15.8 23.8 33.9 88.7 77.8 265.8
07/05 20:30 10.6 71 6.93 5.5 15 17 1013.1 0 16.2 24.1 34.7 90.7 80.2 274.4
07/05 20:20 10.7 69 6.78 5.3 15 17 1013.1 0 15.8 23.8 34.0 89.0 78.2 267.2
07/05 20:10 10.7 69 6.78 5.2 15 17 1013.1 0 15.8 23.8 34.0 89.0 78.2 267.2
07/05 20:00 10.8 67 6.62 5 15 19 1013.1 0 15.5 23.6 33.4 87.2 76.0 259.7
07/05 19:50 10.8 67 6.62 4.9 15 17 1013.1 0 15.5 23.6 33.4 87.2 76.0 259.7

Last Refresh: 08-May-2026 12:10:19

Bureau of Meteorology